createdAt,value
2023-04-07T00:02:25.773Z,8.08
2023-04-07T00:04:53.865Z,7.96
2023-04-07T00:07:21.894Z,7.86
2023-04-07T00:09:49.936Z,7.85
2023-04-07T00:12:17.949Z,7.87
2023-04-07T00:14:47.222Z,7.80
2023-04-07T00:17:15.123Z,7.93
2023-04-07T00:19:43.883Z,7.91
2023-04-07T00:22:11.840Z,7.92
2023-04-07T00:24:39.580Z,7.97
2023-04-07T00:27:07.473Z,7.94
2023-04-07T00:29:35.403Z,7.88
2023-04-07T00:32:04.865Z,8.04
2023-04-07T00:34:33.541Z,7.84
2023-04-07T00:37:01.245Z,7.90
2023-04-07T00:39:28.976Z,7.90
2023-04-07T00:41:58.189Z,7.83
2023-04-07T00:44:27.526Z,7.84
2023-04-07T00:46:55.466Z,7.79
2023-04-07T00:49:24.682Z,7.88
2023-04-07T00:51:52.496Z,7.99
2023-04-07T00:54:20.797Z,8.03
2023-04-07T00:56:48.633Z,8.08
2023-04-07T00:59:16.922Z,8.09
2023-04-07T01:01:47.737Z,8.23
2023-04-07T01:04:23.780Z,8.15
2023-04-07T01:07:00.397Z,8.16
2023-04-07T01:09:39.732Z,8.15
2023-04-07T01:12:14.744Z,8.22
2023-04-07T01:14:48.145Z,8.23
2023-04-07T01:17:40.399Z,8.17
2023-04-07T01:20:12.591Z,8.13
2023-04-07T01:22:47.067Z,8.13
2023-04-07T01:25:30.449Z,8.32
2023-04-07T01:28:15.195Z,8.33
2023-04-07T01:30:45.933Z,8.36
2023-04-07T01:33:15.757Z,8.35
2023-04-07T01:35:44.358Z,8.34
2023-04-07T01:38:13.621Z,8.34
2023-04-07T01:40:42.262Z,8.38
2023-04-07T01:43:11.152Z,8.39
2023-04-07T01:45:40.638Z,8.39
2023-04-07T01:48:10.964Z,8.44
2023-04-07T01:50:40.666Z,8.49
2023-04-07T01:53:09.329Z,8.50
2023-04-07T01:55:37.144Z,8.49
2023-04-07T01:58:09.866Z,8.54
2023-04-07T02:00:42.373Z,8.55
2023-04-07T02:03:21.832Z,8.53
2023-04-07T02:05:53.545Z,8.62
2023-04-07T02:08:25.437Z,8.59
2023-04-07T02:10:54.541Z,8.66
2023-04-07T02:13:23.580Z,8.80
2023-04-07T02:15:54.715Z,8.83
2023-04-07T02:18:25.600Z,8.88
2023-04-07T02:20:54.503Z,8.81
2023-04-07T02:23:22.379Z,8.92
2023-04-07T02:25:50.190Z,8.90
2023-04-07T02:28:18.011Z,8.97
2023-04-07T02:30:46.873Z,8.93
2023-04-07T02:33:14.680Z,8.99
2023-04-07T02:35:45.976Z,8.94
2023-04-07T02:38:13.888Z,9.06
2023-04-07T02:40:41.980Z,8.92
2023-04-07T02:43:09.766Z,9.03
2023-04-07T02:45:37.632Z,9.01
2023-04-07T02:48:05.818Z,9.22
2023-04-07T02:50:33.565Z,9.07
2023-04-07T02:53:02.884Z,9.00
2023-04-07T02:55:30.640Z,9.00
2023-04-07T02:57:58.384Z,8.92
2023-04-07T03:00:36.604Z,9.00
2023-04-07T03:03:10.383Z,9.03
2023-04-07T03:05:40.979Z,8.90
2023-04-07T03:08:13.099Z,8.99
2023-04-07T03:10:41.622Z,9.04
2023-04-07T03:13:12.725Z,9.03
2023-04-07T03:15:41.075Z,8.95
2023-04-07T03:18:08.985Z,8.98
2023-04-07T03:20:37.041Z,8.89
2023-04-07T03:23:13.039Z,8.98
2023-04-07T03:25:40.974Z,8.92
2023-04-07T03:28:09.247Z,9.06
2023-04-07T03:30:39.658Z,9.08
2023-04-07T03:33:08.302Z,9.02
2023-04-07T03:35:36.115Z,9.15
2023-04-07T03:38:03.965Z,9.04
2023-04-07T03:40:33.715Z,9.19
2023-04-07T03:43:01.840Z,9.15
2023-04-07T03:45:30.533Z,9.04
2023-04-07T03:47:58.784Z,9.31
2023-04-07T03:50:26.815Z,9.12
2023-04-07T03:53:08.289Z,8.93
2023-04-07T03:55:38.925Z,9.07
2023-04-07T03:58:14.804Z,9.01
2023-04-07T04:00:43.920Z,9.17
2023-04-07T04:03:13.530Z,9.02
2023-04-07T04:06:04.305Z,8.85
2023-04-07T04:08:33.778Z,8.73
2023-04-07T04:11:03.484Z,8.78
2023-04-07T04:13:37.487Z,8.72
2023-04-07T04:16:07.593Z,8.84
2023-04-07T04:18:37.737Z,8.80
2023-04-07T04:21:08.629Z,8.90
2023-04-07T04:23:37.832Z,8.83
2023-04-07T04:26:07.152Z,8.85
2023-04-07T04:28:35.712Z,8.83
2023-04-07T04:31:06.025Z,8.68
2023-04-07T04:33:40.467Z,8.88
2023-04-07T04:36:08.639Z,8.78
2023-04-07T04:38:36.776Z,8.72
2023-04-07T04:41:18.645Z,8.76
2023-04-07T04:43:47.982Z,8.76
2023-04-07T04:46:20.327Z,8.85
2023-04-07T04:48:49.406Z,8.92
2023-04-07T04:51:18.831Z,9.44
2023-04-07T04:53:51.146Z,9.08
2023-04-07T04:56:21.831Z,9.02
2023-04-07T04:58:51.012Z,8.79
2023-04-07T05:01:33.646Z,8.89
2023-04-07T05:04:10.738Z,8.78
2023-04-07T05:06:43.427Z,8.80
2023-04-07T05:09:13.900Z,8.83
2023-04-07T05:11:48.567Z,8.94
2023-04-07T05:14:16.752Z,8.83
2023-04-07T05:16:51.457Z,8.81
2023-04-07T05:19:23.599Z,8.79
2023-04-07T05:21:54.794Z,8.76
2023-04-07T05:24:26.097Z,8.66
2023-04-07T05:26:58.439Z,8.82
2023-04-07T05:29:27.216Z,8.87
2023-04-07T05:31:56.407Z,8.81
2023-04-07T05:34:24.892Z,8.78
2023-04-07T05:36:55.502Z,8.98
2023-04-07T05:39:23.277Z,8.82
2023-04-07T05:41:54.548Z,8.70
2023-04-07T05:44:27.510Z,8.94
2023-04-07T05:46:56.135Z,8.89
2023-04-07T05:49:26.587Z,8.71
2023-04-07T05:52:03.416Z,8.96
2023-04-07T05:54:31.811Z,8.89
2023-04-07T05:57:02.408Z,8.69
2023-04-07T05:59:33.263Z,8.67
2023-04-07T06:02:02.446Z,8.81
2023-04-07T06:04:31.607Z,8.77
2023-04-07T06:07:01.220Z,8.78
2023-04-07T06:09:29.104Z,8.93
2023-04-07T06:11:57.620Z,8.85
2023-04-07T06:14:25.927Z,8.75
2023-04-07T06:16:55.399Z,9.00
2023-04-07T06:19:23.857Z,8.88
2023-04-07T06:21:51.623Z,8.80
2023-04-07T06:24:22.645Z,8.83
2023-04-07T06:26:50.612Z,8.67
2023-04-07T06:29:18.495Z,8.83
2023-04-07T06:31:46.372Z,8.63
2023-04-07T06:34:16.506Z,8.81
2023-04-07T06:36:45.263Z,8.88
2023-04-07T06:39:13.894Z,8.78
2023-04-07T06:41:43.261Z,8.90
2023-04-07T06:44:11.551Z,8.90
2023-04-07T06:46:41.785Z,9.17
2023-04-07T06:49:09.837Z,9.20
2023-04-07T06:51:39.301Z,8.95
2023-04-07T06:54:12.765Z,9.24
2023-04-07T06:56:40.825Z,9.22
2023-04-07T06:59:08.890Z,9.10
2023-04-07T07:01:37.707Z,9.30
2023-04-07T07:04:07.104Z,8.96
2023-04-07T07:06:34.977Z,8.89
2023-04-07T07:09:04.553Z,9.01
2023-04-07T07:11:32.306Z,9.24
2023-04-07T07:14:00.128Z,9.21
2023-04-07T07:16:28.955Z,9.14
2023-04-07T07:18:56.690Z,9.03
2023-04-07T07:21:24.442Z,8.82
2023-04-07T07:23:52.229Z,9.09
2023-04-07T07:26:22.031Z,8.97
2023-04-07T07:28:49.940Z,9.34
2023-04-07T07:31:17.839Z,9.18
2023-04-07T07:33:51.528Z,9.03
2023-04-07T07:36:19.498Z,8.93
2023-04-07T07:38:48.061Z,9.15
2023-04-07T07:41:16.165Z,9.03
2023-04-07T07:43:45.601Z,8.99
2023-04-07T07:46:13.621Z,8.95
2023-04-07T07:48:41.548Z,9.28
2023-04-07T07:51:09.348Z,9.06
2023-04-07T07:53:37.493Z,9.08
2023-04-07T07:56:05.442Z,9.01
2023-04-07T07:58:33.254Z,8.93
2023-04-07T08:01:02.649Z,9.01
2023-04-07T08:03:30.641Z,8.83
2023-04-07T08:05:58.560Z,8.91
2023-04-07T08:08:26.361Z,8.92
2023-04-07T08:10:54.180Z,8.94
2023-04-07T08:13:21.897Z,9.03
2023-04-07T08:15:49.884Z,9.12
2023-04-07T08:18:19.444Z,9.07
2023-04-07T08:20:47.874Z,8.95
2023-04-07T08:23:15.895Z,8.92
2023-04-07T08:25:43.694Z,8.89
2023-04-07T08:28:11.493Z,8.94
2023-04-07T08:30:39.441Z,8.87
2023-04-07T08:33:07.442Z,8.91
2023-04-07T08:35:36.887Z,8.82
2023-04-07T08:38:05.737Z,8.88
2023-04-07T08:40:33.834Z,8.99
2023-04-07T08:43:06.194Z,9.07
2023-04-07T08:45:35.125Z,8.93
2023-04-07T08:48:12.302Z,8.95
2023-04-07T08:50:45.391Z,9.04
2023-04-07T08:53:14.422Z,9.02
2023-04-07T08:55:42.590Z,9.14
2023-04-07T08:58:12.422Z,8.95
2023-04-07T09:00:42.844Z,9.20
2023-04-07T09:03:11.950Z,9.16
2023-04-07T09:05:41.912Z,9.46
2023-04-07T09:08:09.668Z,9.36
2023-04-07T09:10:37.893Z,9.18
2023-04-07T09:13:06.175Z,9.14
2023-04-07T09:15:35.815Z,9.29
2023-04-07T09:18:05.097Z,9.40
2023-04-07T09:21:02.425Z,9.24
2023-04-07T09:23:32.529Z,9.56
2023-04-07T09:26:01.783Z,9.59
2023-04-07T09:28:46.653Z,9.15
2023-04-07T09:31:14.665Z,9.11
2023-04-07T09:33:42.937Z,9.05
2023-04-07T09:36:12.342Z,9.25
2023-04-07T09:38:41.664Z,9.20
2023-04-07T09:41:11.276Z,9.17
2023-04-07T09:43:41.634Z,9.15
2023-04-07T09:46:13.805Z,9.50
2023-04-07T09:48:42.652Z,9.32
2023-04-07T09:51:13.819Z,9.29
2023-04-07T09:53:47.693Z,9.27
2023-04-07T09:56:17.325Z,9.36
2023-04-07T09:58:47.176Z,9.32
2023-04-07T10:01:16.798Z,9.45
2023-04-07T10:03:47.408Z,9.50
2023-04-07T10:06:17.968Z,9.77
2023-04-07T10:08:46.124Z,9.69
2023-04-07T10:11:14.204Z,9.56
2023-04-07T10:13:42.514Z,9.34
2023-04-07T10:16:10.799Z,9.59
2023-04-07T10:18:42.937Z,9.48
2023-04-07T10:21:15.620Z,9.52
2023-04-07T10:23:56.152Z,9.86
2023-04-07T10:26:33.302Z,9.62
2023-04-07T10:29:06.014Z,9.66
2023-04-07T10:31:35.142Z,9.53
2023-04-07T10:34:05.878Z,9.84
2023-04-07T10:36:34.882Z,9.81
2023-04-07T10:39:24.279Z,9.73
2023-04-07T10:41:53.415Z,9.60
2023-04-07T10:44:50.965Z,9.70
2023-04-07T10:47:22.045Z,9.53
2023-04-07T10:50:19.397Z,9.58
2023-04-07T10:52:49.545Z,9.69
2023-04-07T10:55:34.980Z,9.85
2023-04-07T10:58:24.664Z,9.85
2023-04-07T11:01:24.473Z,9.74
2023-04-07T11:03:59.166Z,9.97
2023-04-07T11:06:30.332Z,9.88
2023-04-07T11:09:01.132Z,9.86
2023-04-07T11:11:44.722Z,9.88
2023-04-07T11:14:13.203Z,10.12
2023-04-07T11:16:46.162Z,10.40
2023-04-07T11:19:19.354Z,10.15
2023-04-07T11:21:47.947Z,9.81
2023-04-07T11:24:34.185Z,9.94
2023-04-07T11:27:04.072Z,10.03
2023-04-07T11:29:33.028Z,10.11
2023-04-07T11:32:03.523Z,10.42
2023-04-07T11:34:32.275Z,10.57
2023-04-07T11:37:19.630Z,10.53
2023-04-07T11:39:54.897Z,10.43
2023-04-07T11:42:34.566Z,10.51
2023-04-07T11:45:02.390Z,10.39
2023-04-07T11:47:37.215Z,10.58
2023-04-07T11:50:06.407Z,10.49
2023-04-07T11:52:42.907Z,10.62
2023-04-07T11:55:21.522Z,10.46
2023-04-07T11:57:52.310Z,10.26
2023-04-07T12:00:21.523Z,10.23
2023-04-07T12:02:49.408Z,10.24
2023-04-07T12:05:17.667Z,10.50
2023-04-07T12:07:55.436Z,10.56
2023-04-07T12:10:25.572Z,10.54
2023-04-07T12:12:54.729Z,10.68
2023-04-07T12:15:22.949Z,10.32
2023-04-07T12:17:50.817Z,10.26
2023-04-07T12:20:19.054Z,10.39
2023-04-07T12:22:47.522Z,10.31
2023-04-07T12:25:15.413Z,10.30
2023-04-07T12:27:43.943Z,10.35
2023-04-07T12:30:14.392Z,10.38
2023-04-07T12:32:42.667Z,10.24
2023-04-07T12:35:10.562Z,10.34
2023-04-07T12:37:39.607Z,10.20
2023-04-07T12:40:08.874Z,10.13
2023-04-07T12:42:36.943Z,10.60
2023-04-07T12:45:05.434Z,10.43
2023-04-07T12:47:35.051Z,10.52
2023-04-07T12:50:03.685Z,10.43
2023-04-07T12:52:32.016Z,10.73
2023-04-07T12:54:59.778Z,10.72
2023-04-07T12:57:27.570Z,10.65
2023-04-07T12:59:55.406Z,10.68
2023-04-07T13:02:23.502Z,10.37
2023-04-07T13:04:53.013Z,10.05
2023-04-07T13:07:21.932Z,9.99
2023-04-07T13:09:49.672Z,10.05
2023-04-07T13:12:17.940Z,10.18
2023-04-07T13:14:56.875Z,10.43
2023-04-07T13:17:29.000Z,10.65
2023-04-07T13:19:59.205Z,10.44
2023-04-07T13:22:27.549Z,10.36
2023-04-07T13:24:55.634Z,10.38
2023-04-07T13:27:23.405Z,10.52
2023-04-07T13:29:51.139Z,10.46
2023-04-07T13:32:18.947Z,10.45
2023-04-07T13:34:46.720Z,10.32
2023-04-07T13:37:16.640Z,10.26
2023-04-07T13:39:44.461Z,10.20
2023-04-07T13:42:12.746Z,10.38
2023-04-07T13:44:40.484Z,10.57
2023-04-07T13:47:08.736Z,10.51
2023-04-07T13:49:36.839Z,10.42
2023-04-07T13:52:04.678Z,10.62
2023-04-07T13:54:33.950Z,10.46
2023-04-07T13:57:01.900Z,10.44
2023-04-07T13:59:29.657Z,10.36
2023-04-07T14:01:57.549Z,10.30
2023-04-07T14:04:25.462Z,10.40
2023-04-07T14:06:53.279Z,10.17
2023-04-07T14:09:21.394Z,10.16
2023-04-07T14:11:50.582Z,10.10
2023-04-07T14:14:18.367Z,10.00
2023-04-07T14:16:46.169Z,10.09
2023-04-07T14:19:14.248Z,9.90
2023-04-07T14:21:42.124Z,10.14
2023-04-07T14:24:09.926Z,10.38
2023-04-07T14:26:37.754Z,10.17
2023-04-07T14:29:06.895Z,9.98
2023-04-07T14:31:35.100Z,9.99
2023-04-07T14:34:02.945Z,10.05
2023-04-07T14:36:31.588Z,10.24
2023-04-07T14:38:59.483Z,10.41
2023-04-07T14:41:27.226Z,10.38
2023-04-07T14:43:56.721Z,10.37
2023-04-07T14:46:27.414Z,9.95
2023-04-07T14:48:55.919Z,9.96
2023-04-07T14:51:23.638Z,9.91
2023-04-07T14:53:56.122Z,10.05
2023-04-07T14:56:25.756Z,10.08
2023-04-07T14:58:53.486Z,10.35
2023-04-07T15:01:21.529Z,10.20
2023-04-07T15:03:52.733Z,10.07
2023-04-07T15:06:21.162Z,10.04
2023-04-07T15:08:49.016Z,10.16
2023-04-07T15:11:16.724Z,10.11
2023-04-07T15:13:44.465Z,10.08
2023-04-07T15:16:14.099Z,10.02
2023-04-07T15:18:44.437Z,10.09
2023-04-07T15:21:15.599Z,10.20
2023-04-07T15:23:44.102Z,10.00
2023-04-07T15:26:11.827Z,10.01
2023-04-07T15:28:40.080Z,10.00
2023-04-07T15:31:09.898Z,10.18
2023-04-07T15:33:38.900Z,10.30
2023-04-07T15:36:07.958Z,10.18
2023-04-07T15:38:38.875Z,10.55
2023-04-07T15:41:07.113Z,10.15
2023-04-07T15:43:35.605Z,10.05
2023-04-07T15:46:03.372Z,10.20
2023-04-07T15:48:31.442Z,10.22
2023-04-07T15:50:59.358Z,10.07
2023-04-07T15:53:27.240Z,10.07
2023-04-07T15:55:56.415Z,10.09
2023-04-07T15:58:24.217Z,10.27
2023-04-07T16:00:52.642Z,10.16
2023-04-07T16:03:20.727Z,10.04
2023-04-07T16:05:48.594Z,10.00
2023-04-07T16:08:16.296Z,9.91
2023-04-07T16:10:44.433Z,9.93
2023-04-07T16:13:13.631Z,9.97
2023-04-07T16:15:41.931Z,10.26
2023-04-07T16:18:12.077Z,10.11
2023-04-07T16:20:39.982Z,9.97
2023-04-07T16:23:07.735Z,9.94
2023-04-07T16:25:36.344Z,9.88
2023-04-07T16:28:04.337Z,9.82
2023-04-07T16:30:33.602Z,9.82
2023-04-07T16:33:01.570Z,9.79
2023-04-07T16:35:32.588Z,9.72
2023-04-07T16:38:04.100Z,9.76
2023-04-07T16:40:32.035Z,9.84
2023-04-07T16:42:59.935Z,9.86
2023-04-07T16:45:28.034Z,9.77
2023-04-07T16:47:57.342Z,9.76
2023-04-07T16:50:25.065Z,9.77
2023-04-07T16:52:53.034Z,9.82
2023-04-07T16:55:21.113Z,9.85
2023-04-07T16:57:50.093Z,9.81
2023-04-07T17:00:19.295Z,9.89
2023-04-07T17:02:47.177Z,9.93
2023-04-07T17:05:17.261Z,9.86
2023-04-07T17:07:44.989Z,9.90
2023-04-07T17:10:13.985Z,9.87
2023-04-07T17:12:41.710Z,9.85
2023-04-07T17:15:10.204Z,9.82
2023-04-07T17:17:39.240Z,9.87
2023-04-07T17:20:08.223Z,9.85
2023-04-07T17:22:37.425Z,9.84
2023-04-07T17:25:06.567Z,9.84
2023-04-07T17:27:34.812Z,9.83
2023-04-07T17:30:03.129Z,9.85
2023-04-07T17:32:30.993Z,9.83
2023-04-07T17:34:58.917Z,9.75
2023-04-07T17:37:26.795Z,9.81
2023-04-07T17:39:56.005Z,9.74
2023-04-07T17:42:23.871Z,9.82
2023-04-07T17:44:53.703Z,9.68
2023-04-07T17:47:21.664Z,9.68
2023-04-07T17:49:49.403Z,9.74
2023-04-07T17:52:17.512Z,9.73
2023-04-07T17:54:45.263Z,9.82
2023-04-07T17:57:15.920Z,9.77
2023-04-07T17:59:43.752Z,9.76
2023-04-07T18:02:11.813Z,9.72
2023-04-07T18:04:40.474Z,9.70
2023-04-07T18:07:08.786Z,9.73
2023-04-07T18:09:36.833Z,9.70
2023-04-07T18:12:04.854Z,9.74
2023-04-07T18:14:34.351Z,9.69
2023-04-07T18:17:02.262Z,9.71
2023-04-07T18:19:31.224Z,9.66
2023-04-07T18:22:00.177Z,9.63
2023-04-07T18:24:27.995Z,9.69
2023-04-07T18:26:56.756Z,9.63
2023-04-07T18:29:24.688Z,9.57
2023-04-07T18:31:54.118Z,9.51
2023-04-07T18:34:21.918Z,9.40
2023-04-07T18:36:50.100Z,9.46
2023-04-07T18:39:17.834Z,9.49
2023-04-07T18:41:47.520Z,9.46
2023-04-07T18:44:15.964Z,9.51
2023-04-07T18:46:44.180Z,9.63
2023-04-07T18:49:13.534Z,9.50
2023-04-07T18:51:42.426Z,9.59
2023-04-07T18:54:10.340Z,9.58
2023-04-07T18:56:38.422Z,9.58
2023-04-07T18:59:07.224Z,9.63
2023-04-07T19:01:35.142Z,9.65
2023-04-07T19:04:03.717Z,9.59
2023-04-07T19:06:33.624Z,9.47
2023-04-07T19:09:03.810Z,9.57
2023-04-07T19:11:31.551Z,9.53
2023-04-07T19:13:59.392Z,9.53
2023-04-07T19:16:27.588Z,9.53
2023-04-07T19:18:55.646Z,9.40
2023-04-07T19:21:23.536Z,9.45
2023-04-07T19:23:52.917Z,9.30
2023-04-07T19:26:21.412Z,9.45
2023-04-07T19:28:49.701Z,9.44
2023-04-07T19:31:18.101Z,9.34
2023-04-07T19:33:46.017Z,9.42
2023-04-07T19:36:14.129Z,9.42
2023-04-07T19:38:41.999Z,9.41
2023-04-07T19:41:11.377Z,9.81
2023-04-07T19:43:39.082Z,9.59
2023-04-07T19:46:08.874Z,9.50
2023-04-07T19:48:42.482Z,9.42
2023-04-07T19:51:10.248Z,9.45
2023-04-07T19:53:38.035Z,9.42
2023-04-07T19:56:06.181Z,9.97
2023-04-07T19:58:35.600Z,9.57
2023-04-07T20:01:04.491Z,9.42
2023-04-07T20:03:32.545Z,9.40
2023-04-07T20:06:01.075Z,9.62
2023-04-07T20:08:28.873Z,9.50
2023-04-07T20:10:56.763Z,9.53
2023-04-07T20:13:24.588Z,9.53
2023-04-07T20:15:53.831Z,9.48
2023-04-07T20:18:21.563Z,9.39
2023-04-07T20:20:50.296Z,9.34
2023-04-07T20:23:22.126Z,9.39
2023-04-07T20:25:50.036Z,9.48
2023-04-07T20:28:17.777Z,9.50
2023-04-07T20:30:46.333Z,9.31
2023-04-07T20:33:15.708Z,9.40
2023-04-07T20:35:43.654Z,9.35
2023-04-07T20:38:11.607Z,9.39
2023-04-07T20:40:39.462Z,9.29
2023-04-07T20:43:07.477Z,9.36
2023-04-07T20:45:35.250Z,9.26
2023-04-07T20:48:03.128Z,9.25
2023-04-07T20:50:33.229Z,9.30
2023-04-07T20:53:01.305Z,9.32
2023-04-07T20:55:29.540Z,9.24
2023-04-07T20:57:57.417Z,9.34
2023-04-07T21:00:25.983Z,9.36
2023-04-07T21:02:54.384Z,9.38
2023-04-07T21:05:22.423Z,9.32
2023-04-07T21:07:51.559Z,9.31
2023-04-07T21:10:19.608Z,9.23
2023-04-07T21:12:47.524Z,9.26
2023-04-07T21:15:15.785Z,9.34
2023-04-07T21:17:43.727Z,9.34
2023-04-07T21:20:12.569Z,9.27
2023-04-07T21:22:40.481Z,9.33
2023-04-07T21:25:10.726Z,9.21
2023-04-07T21:27:38.579Z,9.19
2023-04-07T21:30:07.260Z,9.23
2023-04-07T21:32:35.207Z,9.12
2023-04-07T21:35:03.740Z,9.11
2023-04-07T21:37:31.950Z,9.14
2023-04-07T21:39:59.716Z,9.21
2023-04-07T21:42:28.916Z,9.17
2023-04-07T21:44:57.039Z,9.17
2023-04-07T21:47:24.976Z,9.15
2023-04-07T21:49:53.399Z,9.16
2023-04-07T21:52:21.297Z,9.25
2023-04-07T21:54:49.102Z,9.21
2023-04-07T21:57:16.927Z,9.11
2023-04-07T21:59:46.188Z,9.21
2023-04-07T22:02:14.422Z,9.19
2023-04-07T22:04:42.837Z,9.26
2023-04-07T22:07:11.568Z,9.21
2023-04-07T22:09:39.443Z,9.23
2023-04-07T22:12:07.267Z,9.18
2023-04-07T22:14:35.025Z,9.13
2023-04-07T22:17:04.386Z,9.25
2023-04-07T22:19:32.275Z,9.22
2023-04-07T22:22:00.497Z,9.16
2023-04-07T22:24:28.357Z,9.22
2023-04-07T22:26:57.267Z,9.22
2023-04-07T22:29:25.118Z,9.25
2023-04-07T22:31:53.059Z,9.31
2023-04-07T22:34:22.631Z,9.29
2023-04-07T22:36:50.374Z,9.18
2023-04-07T22:39:18.152Z,9.19
2023-04-07T22:41:45.938Z,9.22
2023-04-07T22:44:13.910Z,9.25
2023-04-07T22:46:41.889Z,9.30
2023-04-07T22:49:09.803Z,9.28
2023-04-07T22:51:39.066Z,9.29
2023-04-07T22:54:06.839Z,9.28
2023-04-07T22:56:34.608Z,9.27
2023-04-07T22:59:05.642Z,9.29
2023-04-07T23:01:34.305Z,9.24
2023-04-07T23:04:02.314Z,9.24
2023-04-07T23:06:30.013Z,9.27
2023-04-07T23:08:59.616Z,9.29
2023-04-07T23:11:27.396Z,9.31
2023-04-07T23:13:55.302Z,9.35
2023-04-07T23:16:24.313Z,9.31
2023-04-07T23:18:52.352Z,9.29
2023-04-07T23:21:20.157Z,9.28
2023-04-07T23:23:48.669Z,9.30
2023-04-07T23:26:17.940Z,9.28
2023-04-07T23:28:46.283Z,9.29
2023-04-07T23:31:14.405Z,9.23
2023-04-07T23:33:42.321Z,9.30
2023-04-07T23:36:10.225Z,9.20
2023-04-07T23:38:39.497Z,9.20
2023-04-07T23:41:07.656Z,9.21
2023-04-07T23:43:36.849Z,9.25
2023-04-07T23:46:04.888Z,9.24
2023-04-07T23:48:32.703Z,9.22
2023-04-07T23:51:00.892Z,9.19
2023-04-07T23:53:28.853Z,9.21
2023-04-07T23:55:56.875Z,9.22
2023-04-07T23:58:25.293Z,9.23
